Laukaa, Finland
Kieli:  Suomi
CurCond
Päivitetty21/04/2021 06:09 
 

Lähistön Lentoasemien Säätiloja:

 

EFJY - Jyvaskyla (mil/C,) Finland
Etäisyys Sääasemalta: PKo 21km
Päivitetty: 21/04/2021 05:50
Selkeätä
Selkeätä
 Tuulen suunta varies
Tuuli: varies 2 km/h
Lämpötila: -4°C
Kastepiste: -6°C
Ilmankosteus: 86%
Ilmanpaine: 1010 hPa
Yhteenveto: Selkeätä
Näkyvyys: Enemmän Kuin 10 km
2021/04/21 02:50 EFJY 210250Z AUTO VRB01KT CAVOK M04/M06 Q1010
EFHA - Halli (fin-Afb), Finland
Etäisyys Sääasemalta: Lo 56km
Päivitetty: 21/04/2021 05:50
Selkeätä
Selkeätä
 Tuulen suunta IKa
Tuuli: IKa 7 km/h
Lämpötila: -1°C
Tuulen purevuus: -4°C
Kastepiste: -6°C
Ilmankosteus: 69%
Ilmanpaine: 1009 hPa
Yhteenveto: Selkeätä
Näkyvyys: Enemmän Kuin 10 km
2021/04/21 02:50 EFHA 210250Z AUTO 11004KT CAVOK M01/M06 Q1009
EFMI - Mikkeli, Finland
Etäisyys Sääasemalta: IKa 105km
Päivitetty: 21/04/2021 05:50
Selkeätä
Selkeätä
 Tuulen suunta Tyyntä
Tuuli: Tyyntä
Lämpötila: -2°C
Kastepiste: -5°C
Ilmankosteus: 80%
Ilmanpaine: 1011 hPa
Yhteenveto: Selkeätä
Näkyvyys: Enemmän Kuin 10 km
2021/04/21 02:50 EFMI 210250Z AUTO 00000KT CAVOK M02/M05 Q1011
 
EFTP - Tampere/Pirkkala, Finland
Etäisyys Sääasemalta: Lo 135km
Päivitetty: 21/04/2021 05:50
Selkeätä
Selkeätä
 Tuulen suunta varies
Tuuli: varies 2 km/h
Lämpötila: -2°C
Kastepiste: -4°C
Ilmankosteus: 86%
Ilmanpaine: 1009 hPa
Yhteenveto: Selkeätä
Näkyvyys: Enemmän Kuin 10 km
2021/04/21 02:50 EFTP 210250Z AUTO VRB01KT CAVOK M02/M04 Q1009
EFKU - Kuopio (mil/Civ), Finland
Etäisyys Sääasemalta: Ko 146km
Päivitetty: 21/04/2021 05:50
Selkeätä
Selkeätä
 Tuulen suunta varies
Tuuli: varies 2 km/h
Lämpötila: -1°C
Kastepiste: -6°C
Ilmankosteus: 69%
Ilmanpaine: 1012 hPa
Yhteenveto: Selkeätä
Näkyvyys: Enemmän Kuin 10 km
2021/04/21 02:50 EFKU 210250Z AUTO VRB01KT CAVOK M01/M06 Q1012
EFSI - Seinajoki-Ilmajo, Finland
Etäisyys Sääasemalta: LLu 149km
Päivitetty: 21/04/2021 05:50
Selkeätä
Selkeätä
 Tuulen suunta Ka
Tuuli: Ka 6 km/h
Lämpötila: -1°C
Kastepiste: -5°C
Ilmankosteus: 75%
Ilmanpaine: 1008 hPa
Yhteenveto: Selkeätä
Näkyvyys: Enemmän Kuin 10 km
2021/04/21 02:50 EFSI 210250Z AUTO 14003KT CAVOK M01/M05 Q1008